Time;durP1;ratioP1;P1;durP2;ratioP2;P2;SDS_P1;SDS_P2;PMS_P1;PMS_P2;Temp;Humidity;BMP_temperature;BMP_pressure;BME280_temperature;BME280_humidity;BME280_pressure;Samples;Min_cycle;Max_cycle;Signal;HPM_P1;HPM_P2
2021/11/23 00:00:50;;;;;;;8.30;5.03;;;;;;;;;;5055230;28;20021;-54
2021/11/23 00:03:18;;;;;;;7.90;6.10;;;;;;;;;;5048329;28;20063;-55
2021/11/23 00:05:45;;;;;;;10.33;6.00;;;;;;;;;;5034970;28;20037;-57
2021/11/23 00:08:11;;;;;;;6.53;5.90;;;;;;;;;;5034188;28;20395;-57
2021/11/23 00:10:39;;;;;;;7.17;6.47;;;;;;;;;;5035329;28;20033;-57
2021/11/23 00:13:05;;;;;;;7.50;5.93;;;;;;;;;;5035040;28;20101;-56
2021/11/23 00:15:35;;;;;;;8.90;6.87;;;;;;;;;;5035016;28;20023;-57
2021/11/23 00:18:05;;;;;;;6.37;5.37;;;;;;;;;;5034030;28;20450;-58
2021/11/23 00:20:31;;;;;;;7.33;6.40;;;;;;;;;;5034715;28;20033;-58
2021/11/23 00:22:57;;;;;;;7.13;5.47;;;;;;;;;;5034907;28;20248;-57
2021/11/23 00:25:23;;;;;;;5.67;4.57;;;;;;;;;;5034930;28;20521;-58
2021/11/23 00:27:49;;;;;;;5.33;4.83;;;;;;;;;;5033869;28;20440;-57
2021/11/23 00:30:15;;;;;;;6.57;5.83;;;;;;;;;;5034928;28;20032;-58
2021/11/23 00:32:41;;;;;;;6.87;5.43;;;;;;;;;;5034692;28;20082;-58
2021/11/23 00:35:07;;;;;;;5.37;4.87;;;;;;;;;;5034301;28;20025;-57
2021/11/23 00:37:33;;;;;;;7.17;6.47;;;;;;;;;;5034528;28;20053;-58
2021/11/23 00:39:59;;;;;;;8.03;6.20;;;;;;;;;;5033009;28;20495;-58
2021/11/23 00:42:25;;;;;;;6.90;5.47;;;;;;;;;;5034459;28;20525;-54
2021/11/23 00:44:51;;;;;;;6.77;5.50;;;;;;;;;;5034389;28;20049;-55
2021/11/23 00:47:17;;;;;;;6.23;5.63;;;;;;;;;;5034702;28;20363;-56
2021/11/23 00:49:43;;;;;;;5.77;4.97;;;;;;;;;;5033668;28;20036;-56
2021/11/23 00:52:09;;;;;;;9.30;6.00;;;;;;;;;;5034303;28;20025;-57
2021/11/23 00:54:35;;;;;;;5.20;4.70;;;;;;;;;;5034385;28;20030;-56
2021/11/23 00:57:01;;;;;;;8.17;6.10;;;;;;;;;;5034253;28;20029;-57
2021/11/23 00:59:28;;;;;;;8.80;6.23;;;;;;;;;;5033525;28;20033;-58
2021/11/23 01:01:53;;;;;;;5.03;4.37;;;;;;;;;;5034125;28;20033;-58
2021/11/23 01:04:19;;;;;;;12.97;6.17;;;;;;;;;;5049138;28;20083;-58
2021/11/23 01:06:49;;;;;;;6.13;4.17;;;;;;;;;;5053754;28;20060;-55
2021/11/23 01:09:15;;;;;;;6.67;5.53;;;;;;;;;;5053419;28;20442;-55
2021/11/23 01:11:41;;;;;;;6.67;5.97;;;;;;;;;;5053965;28;20033;-57
2021/11/23 01:14:08;;;;;;;6.60;5.90;;;;;;;;;;5053906;28;20108;-57
2021/11/23 01:16:34;;;;;;;5.83;5.03;;;;;;;;;;5053685;28;20060;-58
2021/11/23 01:19:00;;;;;;;6.67;5.43;;;;;;;;;;5052789;28;20090;-58
2021/11/23 01:21:26;;;;;;;7.87;7.07;;;;;;;;;;5053593;28;20033;-56
2021/11/23 01:23:53;;;;;;;7.50;6.70;;;;;;;;;;5053674;28;20025;-57
2021/11/23 01:26:20;;;;;;;5.27;4.70;;;;;;;;;;5053590;28;20032;-57
2021/11/23 01:28:46;;;;;;;7.40;6.70;;;;;;;;;;5052755;28;20035;-57
2021/11/23 01:31:12;;;;;;;7.17;5.70;;;;;;;;;;5053538;28;20029;-58
2021/11/23 01:33:38;;;;;;;8.60;6.33;;;;;;;;;;5053242;28;20021;-58
2021/11/23 01:36:04;;;;;;;8.77;7.87;;;;;;;;;;5053420;28;20029;-57
2021/11/23 01:38:31;;;;;;;4.83;4.40;;;;;;;;;;5052507;28;20060;-57
2021/11/23 01:40:57;;;;;;;6.17;5.57;;;;;;;;;;5053473;28;20028;-57
2021/11/23 01:43:23;;;;;;;6.60;5.90;;;;;;;;;;5053269;28;20032;-56
2021/11/23 01:45:49;;;;;;;7.23;6.13;;;;;;;;;;5053113;28;20036;-58
2021/11/23 01:48:15;;;;;;;5.27;4.77;;;;;;;;;;5052563;28;20029;-58
2021/11/23 01:50:41;;;;;;;5.23;4.73;;;;;;;;;;5053112;28;20391;-58
2021/11/23 01:53:07;;;;;;;6.63;5.50;;;;;;;;;;5053099;28;20029;-57
2021/11/23 01:55:40;;;;;;;6.17;5.40;;;;;;;;;;5053025;28;20029;-58
2021/11/23 01:58:07;;;;;;;4.80;4.40;;;;;;;;;;5052161;28;20487;-58
2021/11/23 02:00:34;;;;;;;6.80;5.33;;;;;;;;;;5052677;28;20033;-58
2021/11/23 02:03:00;;;;;;;5.97;5.27;;;;;;;;;;5048501;28;20040;-57
2021/11/23 02:05:26;;;;;;;6.43;5.67;;;;;;;;;;5032948;28;20104;-58
2021/11/23 02:07:52;;;;;;;5.93;5.00;;;;;;;;;;5031953;28;20033;-59
2021/11/23 02:10:18;;;;;;;7.87;6.00;;;;;;;;;;5032820;28;20133;-57
2021/11/23 02:12:45;;;;;;;5.57;4.87;;;;;;;;;;5032806;28;20143;-58
2021/11/23 02:15:11;;;;;;;7.07;5.50;;;;;;;;;;5032413;28;20024;-58
2021/11/23 02:17:38;;;;;;;8.03;6.57;;;;;;;;;;5032709;28;20083;-58
2021/11/23 02:20:07;;;;;;;7.27;5.47;;;;;;;;;;5031741;28;20468;-58
2021/11/23 02:22:33;;;;;;;5.73;5.23;;;;;;;;;;5032547;28;20029;-57
2021/11/23 02:24:59;;;;;;;6.00;5.40;;;;;;;;;;5032414;28;20104;-58
2021/11/23 02:27:25;;;;;;;8.00;6.30;;;;;;;;;;5032441;28;20030;-58
2021/11/23 02:29:51;;;;;;;6.63;5.17;;;;;;;;;;5031621;28;20044;-58
2021/11/23 02:32:17;;;;;;;4.00;3.43;;;;;;;;;;5032713;28;20414;-58
2021/11/23 02:34:43;;;;;;;9.33;6.07;;;;;;;;;;5032508;28;20104;-58
2021/11/23 02:37:09;;;;;;;5.20;4.40;;;;;;;;;;5032306;28;20351;-57
2021/11/23 02:39:35;;;;;;;6.10;5.50;;;;;;;;;;5031473;28;20133;-58
2021/11/23 02:42:01;;;;;;;6.43;5.80;;;;;;;;;;5032897;28;20045;-58
2021/11/23 02:44:27;;;;;;;5.30;4.80;;;;;;;;;;5031979;28;20101;-58
2021/11/23 02:46:53;;;;;;;6.47;5.87;;;;;;;;;;5032455;28;20025;-59
2021/11/23 02:49:21;;;;;;;5.70;5.00;;;;;;;;;;5031786;28;20033;-58
2021/11/23 02:51:47;;;;;;;5.10;4.57;;;;;;;;;;5032297;28;20037;-58
2021/11/23 02:54:13;;;;;;;6.17;5.17;;;;;;;;;;5032111;28;20028;-58
2021/11/23 02:56:39;;;;;;;6.93;6.00;;;;;;;;;;5032067;28;20108;-57
2021/11/23 02:59:05;;;;;;;6.63;5.63;;;;;;;;;;5031152;28;20044;-58
2021/11/23 03:01:31;;;;;;;6.43;5.83;;;;;;;;;;5031864;28;20026;-57
2021/11/23 03:03:57;;;;;;;6.77;6.10;;;;;;;;;;5044390;28;20025;-58
2021/11/23 03:06:23;;;;;;;6.47;5.87;;;;;;;;;;5052008;28;20490;-57
2021/11/23 03:08:50;;;;;;;6.93;6.23;;;;;;;;;;5051171;28;20522;-57
2021/11/23 03:11:18;;;;;;;7.13;6.10;;;;;;;;;;5051764;28;20529;-58
2021/11/23 03:13:44;;;;;;;6.73;5.97;;;;;;;;;;5051928;28;20057;-58
2021/11/23 03:16:11;;;;;;;8.03;5.60;;;;;;;;;;5052175;28;20063;-58
2021/11/23 03:18:37;;;;;;;7.20;5.73;;;;;;;;;;5051224;28;20083;-57
2021/11/23 03:21:03;;;;;;;8.00;5.70;;;;;;;;;;5051909;28;20036;-57
2021/11/23 03:23:29;;;;;;;6.53;5.83;;;;;;;;;;5051750;28;20119;-58
2021/11/23 03:25:55;;;;;;;9.77;6.80;;;;;;;;;;5051596;28;20065;-57
2021/11/23 03:28:21;;;;;;;6.57;5.20;;;;;;;;;;5051194;28;20033;-57
2021/11/23 03:30:47;;;;;;;5.77;4.67;;;;;;;;;;5051783;28;20025;-58
2021/11/23 03:33:13;;;;;;;5.60;5.03;;;;;;;;;;5052014;28;20028;-57
2021/11/23 03:35:40;;;;;;;6.93;6.23;;;;;;;;;;5051576;28;20068;-59
2021/11/23 03:38:07;;;;;;;5.43;4.93;;;;;;;;;;5050900;28;20036;-57
2021/11/23 03:40:34;;;;;;;8.57;6.97;;;;;;;;;;5051486;28;20025;-58
2021/11/23 03:43:01;;;;;;;5.43;4.93;;;;;;;;;;5051866;28;20025;-58
2021/11/23 03:45:27;;;;;;;8.73;5.80;;;;;;;;;;5052030;28;20032;-57
2021/11/23 03:47:53;;;;;;;9.40;6.73;;;;;;;;;;5051045;28;20035;-57
2021/11/23 03:50:19;;;;;;;8.53;6.10;;;;;;;;;;5051551;28;20087;-58
2021/11/23 03:52:46;;;;;;;5.50;4.97;;;;;;;;;;5051728;28;20029;-58
2021/11/23 03:55:17;;;;;;;7.43;6.30;;;;;;;;;;5051076;28;20422;-58
2021/11/23 03:57:43;;;;;;;6.75;5.28;;;;;;;;;;5051397;28;20108;-59
2021/11/23 04:00:10;;;;;;;7.00;5.97;;;;;;;;;;5051348;28;20120;-58
2021/11/23 04:02:36;;;;;;;6.00;4.27;;;;;;;;;;5050502;28;20059;-58
2021/11/23 04:05:02;;;;;;;6.73;6.03;;;;;;;;;;5031379;28;20033;-57
2021/11/23 04:07:28;;;;;;;6.90;6.20;;;;;;;;;;5031284;28;20456;-57
2021/11/23 04:09:54;;;;;;;8.30;6.87;;;;;;;;;;5030505;28;20033;-58
2021/11/23 04:12:19;;;;;;;11.17;6.23;;;;;;;;;;5031588;28;20052;-58
2021/11/23 04:14:45;;;;;;;6.77;5.77;;;;;;;;;;5033871;28;20022;-58
2021/11/23 04:17:12;;;;;;;6.17;5.27;;;;;;;;;;5034915;28;20124;-58
2021/11/23 04:19:38;;;;;;;7.17;5.73;;;;;;;;;;5034236;28;20037;-57
2021/11/23 04:22:05;;;;;;;7.43;6.60;;;;;;;;;;5034721;28;20379;-58
2021/11/23 04:24:31;;;;;;;7.90;7.20;;;;;;;;;;5034629;28;20040;-58
2021/11/23 04:26:57;;;;;;;8.47;6.03;;;;;;;;;;5034747;28;20025;-58
2021/11/23 04:29:23;;;;;;;7.30;5.87;;;;;;;;;;5034105;28;20025;-58
2021/11/23 04:31:49;;;;;;;6.93;6.23;;;;;;;;;;5029026;28;20079;-58
2021/11/23 04:34:16;;;;;;;6.67;6.07;;;;;;;;;;5034710;28;20475;-58
2021/11/23 04:36:42;;;;;;;7.87;7.07;;;;;;;;;;5034753;28;20042;-58
2021/11/23 04:39:10;;;;;;;7.30;6.60;;;;;;;;;;5033570;28;20061;-58
2021/11/23 04:41:36;;;;;;;5.77;5.07;;;;;;;;;;5034508;28;20390;-58
2021/11/23 04:44:02;;;;;;;7.00;6.07;;;;;;;;;;5033189;28;20033;-58
2021/11/23 04:46:28;;;;;;;7.47;5.40;;;;;;;;;;5034447;28;20044;-58
2021/11/23 04:48:54;;;;;;;6.90;6.30;;;;;;;;;;5034123;28;20375;-58
2021/11/23 04:51:21;;;;;;;7.33;6.40;;;;;;;;;;5034153;28;20429;-58
2021/11/23 04:53:47;;;;;;;6.67;6.07;;;;;;;;;;5034411;28;20025;-58
2021/11/23 04:56:14;;;;;;;7.37;5.20;;;;;;;;;;5034260;28;20076;-58
2021/11/23 04:58:40;;;;;;;6.20;5.57;;;;;;;;;;5033771;28;20033;-58
2021/11/23 05:01:06;;;;;;;7.03;5.90;;;;;;;;;;5033806;28;20036;-58
2021/11/23 05:03:32;;;;;;;9.10;7.10;;;;;;;;;;5042777;28;20032;-57
2021/11/23 05:05:58;;;;;;;8.97;6.83;;;;;;;;;;5053690;28;20035;-58
2021/11/23 05:08:24;;;;;;;8.97;6.63;;;;;;;;;;5053570;28;20068;-59
2021/11/23 05:10:50;;;;;;;10.77;6.20;;;;;;;;;;5053706;28;20075;-59
2021/11/23 05:13:16;;;;;;;11.73;7.47;;;;;;;;;;5053759;28;20079;-58
2021/11/23 05:15:42;;;;;;;8.77;7.00;;;;;;;;;;5053700;28;20111;-59
2021/11/23 05:18:07;;;;;;;8.07;7.13;;;;;;;;;;5052915;28;20454;-59
2021/11/23 05:20:33;;;;;;;7.27;6.57;;;;;;;;;;5053596;28;20029;-59
2021/11/23 05:22:59;;;;;;;10.23;7.97;;;;;;;;;;5052809;28;20124;-59
2021/11/23 05:25:25;;;;;;;9.20;7.00;;;;;;;;;;5053224;28;20032;-59
2021/11/23 05:27:52;;;;;;;7.03;5.90;;;;;;;;;;5052803;28;20143;-59
2021/11/23 05:30:18;;;;;;;7.93;6.40;;;;;;;;;;5053367;28;20021;-58
2021/11/23 05:32:44;;;;;;;9.63;7.27;;;;;;;;;;5051637;28;20056;-59
2021/11/23 05:35:10;;;;;;;8.67;6.20;;;;;;;;;;5053215;28;20490;-56
2021/11/23 05:37:37;;;;;;;9.17;5.87;;;;;;;;;;5053599;28;20040;-59
2021/11/23 05:40:03;;;;;;;7.40;6.57;;;;;;;;;;5052772;28;20111;-59
2021/11/23 05:42:29;;;;;;;8.27;7.47;;;;;;;;;;5053187;28;20378;-58
2021/11/23 05:44:56;;;;;;;8.97;7.63;;;;;;;;;;5053240;28;20039;-58
2021/11/23 05:47:22;;;;;;;7.50;6.70;;;;;;;;;;5053018;28;20052;-58
2021/11/23 05:49:49;;;;;;;6.60;5.10;;;;;;;;;;5052427;28;20028;-58
2021/11/23 05:52:15;;;;;;;8.07;7.27;;;;;;;;;;5051948;28;20021;-58
2021/11/23 05:54:41;;;;;;;16.97;6.47;;;;;;;;;;5053244;28;20086;-58
2021/11/23 05:57:07;;;;;;;6.73;6.10;;;;;;;;;;5052832;28;20079;-58
2021/11/23 05:59:33;;;;;;;7.53;6.83;;;;;;;;;;5051954;28;20037;-58
2021/11/23 06:01:59;;;;;;;7.80;6.97;;;;;;;;;;5052764;28;20463;-58
2021/11/23 06:04:25;;;;;;;12.20;7.90;;;;;;;;;;5036532;28;20029;-58
2021/11/23 06:06:51;;;;;;;8.53;6.97;;;;;;;;;;5033056;28;20021;-58
2021/11/23 06:09:17;;;;;;;12.43;8.10;;;;;;;;;;5032453;28;20021;-58
2021/11/23 06:11:43;;;;;;;8.40;6.77;;;;;;;;;;5032783;28;20112;-58
2021/11/23 06:14:09;;;;;;;8.53;7.63;;;;;;;;;;5032567;28;20121;-58
2021/11/23 06:16:37;;;;;;;9.13;8.17;;;;;;;;;;5032626;28;20041;-58
2021/11/23 06:19:03;;;;;;;8.67;7.27;;;;;;;;;;5031796;28;20049;-59
2021/11/23 06:21:29;;;;;;;9.57;7.33;;;;;;;;;;5032647;28;20036;-59
2021/11/23 06:23:55;;;;;;;8.70;7.17;;;;;;;;;;5032802;28;20029;-58
2021/11/23 06:26:22;;;;;;;8.33;7.03;;;;;;;;;;5032482;28;20029;-59
2021/11/23 06:28:48;;;;;;;8.37;7.60;;;;;;;;;;5031608;28;20033;-58
2021/11/23 06:31:15;;;;;;;6.17;5.20;;;;;;;;;;5030361;28;20056;-58
2021/11/23 06:33:41;;;;;;;8.50;6.80;;;;;;;;;;5032161;28;20474;-58
2021/11/23 06:36:07;;;;;;;9.90;8.67;;;;;;;;;;5031771;28;20043;-59
2021/11/23 06:38:33;;;;;;;7.50;6.67;;;;;;;;;;5031576;28;20043;-59
2021/11/23 06:41:00;;;;;;;10.10;8.47;;;;;;;;;;5032475;28;20116;-59
2021/11/23 06:43:26;;;;;;;8.47;7.13;;;;;;;;;;5032377;28;20037;-58
2021/11/23 06:45:52;;;;;;;7.60;6.57;;;;;;;;;;5032289;28;20486;-59
2021/11/23 06:48:18;;;;;;;9.43;7.77;;;;;;;;;;5031611;28;20403;-59
2021/11/23 06:50:44;;;;;;;9.33;7.73;;;;;;;;;;5032408;28;20025;-59
2021/11/23 06:53:11;;;;;;;11.03;6.90;;;;;;;;;;5032380;28;20091;-59
2021/11/23 06:55:37;;;;;;;7.50;6.03;;;;;;;;;;5032265;28;20021;-58
2021/11/23 06:58:03;;;;;;;9.20;7.30;;;;;;;;;;5031711;28;20029;-59
2021/11/23 07:00:29;;;;;;;7.90;6.37;;;;;;;;;;5031982;28;20049;-58
2021/11/23 07:02:56;;;;;;;10.30;8.17;;;;;;;;;;5036002;28;20033;-57
2021/11/23 07:05:22;;;;;;;18.63;9.50;;;;;;;;;;5052099;28;20036;-58
2021/11/23 07:07:48;;;;;;;7.40;6.67;;;;;;;;;;5051218;28;20025;-59
2021/11/23 07:10:15;;;;;;;10.60;9.50;;;;;;;;;;5051989;28;20039;-58
2021/11/23 07:12:41;;;;;;;7.40;6.63;;;;;;;;;;5051875;28;20025;-58
2021/11/23 07:15:08;;;;;;;10.43;9.37;;;;;;;;;;5051665;28;20079;-58
2021/11/23 07:17:34;;;;;;;6.97;6.30;;;;;;;;;;5051839;28;20056;-58
2021/11/23 07:20:00;;;;;;;9.27;7.40;;;;;;;;;;5051256;28;20037;-59
2021/11/23 07:22:26;;;;;;;12.90;9.93;;;;;;;;;;5051854;28;20025;-59
2021/11/23 07:24:52;;;;;;;8.80;7.57;;;;;;;;;;5052408;28;20099;-58
2021/11/23 07:27:19;;;;;;;9.87;8.87;;;;;;;;;;5051628;28;20084;-59
2021/11/23 07:29:45;;;;;;;9.63;8.47;;;;;;;;;;5050832;28;20029;-58
2021/11/23 07:32:11;;;;;;;8.20;6.70;;;;;;;;;;5049739;28;20029;-57
2021/11/23 07:34:38;;;;;;;9.27;7.67;;;;;;;;;;5051621;28;20033;-59
2021/11/23 07:37:04;;;;;;;10.27;9.17;;;;;;;;;;5051657;28;20044;-58
2021/11/23 07:39:30;;;;;;;8.53;7.47;;;;;;;;;;5050769;28;20036;-59
2021/11/23 07:41:56;;;;;;;11.57;7.97;;;;;;;;;;5051644;28;20021;-59
2021/11/23 07:44:22;;;;;;;10.23;9.23;;;;;;;;;;5051080;28;20061;-58
2021/11/23 07:46:48;;;;;;;10.40;9.27;;;;;;;;;;5051546;28;20497;-58
2021/11/23 07:49:14;;;;;;;8.93;7.17;;;;;;;;;;5054281;28;20517;-59
2021/11/23 07:51:40;;;;;;;13.87;9.13;;;;;;;;;;5055581;28;20033;-58
2021/11/23 07:54:06;;;;;;;11.10;8.57;;;;;;;;;;5055669;28;20036;-58
2021/11/23 07:56:32;;;;;;;10.83;9.40;;;;;;;;;;5055554;28;20111;-58
2021/11/23 07:58:58;;;;;;;10.57;8.33;;;;;;;;;;5054275;28;20033;-59
2021/11/23 08:01:24;;;;;;;10.97;7.77;;;;;;;;;;5054993;28;20507;-57
2021/11/23 08:03:50;;;;;;;8.63;7.10;;;;;;;;;;5043857;28;20418;-58
2021/11/23 08:06:18;;;;;;;7.97;6.57;;;;;;;;;;5035023;28;20022;-58
2021/11/23 08:08:44;;;;;;;8.97;8.07;;;;;;;;;;5034791;28;20029;-57
2021/11/23 08:11:10;;;;;;;8.83;8.00;;;;;;;;;;5035120;28;20041;-58
2021/11/23 08:13:36;;;;;;;8.00;7.10;;;;;;;;;;5034622;28;20086;-58
2021/11/23 08:16:03;;;;;;;10.40;7.20;;;;;;;;;;5034717;28;20502;-57
2021/11/23 08:18:30;;;;;;;12.87;9.00;;;;;;;;;;5034364;28;20375;-59
2021/11/23 08:20:56;;;;;;;8.53;7.63;;;;;;;;;;5035009;28;20032;-58
2021/11/23 08:23:22;;;;;;;11.10;9.80;;;;;;;;;;5034891;28;20176;-59
2021/11/23 08:25:48;;;;;;;9.70;8.47;;;;;;;;;;5034947;28;20100;-58
2021/11/23 08:28:15;;;;;;;11.50;8.00;;;;;;;;;;5034059;28;20028;-58
2021/11/23 08:30:41;;;;;;;10.13;8.03;;;;;;;;;;5032794;28;20045;-58
2021/11/23 08:33:07;;;;;;;10.57;9.47;;;;;;;;;;5034914;28;20045;-58
2021/11/23 08:35:33;;;;;;;9.43;8.47;;;;;;;;;;5034546;28;20026;-59
2021/11/23 08:37:59;;;;;;;11.67;8.90;;;;;;;;;;5033894;28;20035;-59
2021/11/23 08:40:25;;;;;;;7.30;6.60;;;;;;;;;;5034820;28;20407;-58
2021/11/23 08:42:51;;;;;;;7.30;6.53;;;;;;;;;;5034519;28;20041;-58
2021/11/23 08:45:18;;;;;;;8.63;7.73;;;;;;;;;;5034726;28;20108;-58
2021/11/23 08:47:44;;;;;;;9.67;7.30;;;;;;;;;;5034132;28;20029;-59
2021/11/23 08:50:10;;;;;;;9.47;7.20;;;;;;;;;;5034097;28;20025;-59
2021/11/23 08:52:37;;;;;;;8.43;7.27;;;;;;;;;;5034402;28;20037;-58
2021/11/23 08:55:04;;;;;;;9.50;7.73;;;;;;;;;;5034329;28;20174;-58
2021/11/23 08:57:30;;;;;;;8.57;7.67;;;;;;;;;;5034057;28;20112;-58
2021/11/23 09:00:13;;;;;;;9.27;7.83;;;;;;;;;;5032993;28;20539;-56
2021/11/23 09:02:38;;;;;;;9.57;8.57;;;;;;;;;;5035490;28;20112;-58
2021/11/23 09:05:05;;;;;;;9.80;8.80;;;;;;;;;;5053975;28;20107;-58
2021/11/23 09:07:31;;;;;;;9.80;7.87;;;;;;;;;;5053868;28;20413;-58
2021/11/23 09:09:57;;;;;;;8.07;6.77;;;;;;;;;;5053293;28;20134;-58
2021/11/23 09:12:23;;;;;;;14.97;7.70;;;;;;;;;;5053918;28;20478;-58
2021/11/23 09:14:49;;;;;;;8.97;8.03;;;;;;;;;;5053921;28;20021;-59
2021/11/23 09:17:15;;;;;;;14.67;9.10;;;;;;;;;;5053794;28;20086;-58
2021/11/23 09:19:41;;;;;;;12.03;8.70;;;;;;;;;;5053149;28;20156;-58
2021/11/23 09:22:07;;;;;;;8.67;7.87;;;;;;;;;;5053717;28;20104;-58
2021/11/23 09:24:33;;;;;;;8.60;6.90;;;;;;;;;;5053595;28;20033;-58
2021/11/23 09:26:59;;;;;;;8.77;7.87;;;;;;;;;;5053505;28;20025;-57
2021/11/23 09:29:26;;;;;;;6.93;6.23;;;;;;;;;;5053153;28;20036;-58
2021/11/23 09:31:52;;;;;;;8.87;7.97;;;;;;;;;;5052165;28;20028;-58
2021/11/23 09:34:20;;;;;;;8.63;7.83;;;;;;;;;;5053348;28;20474;-58
2021/11/23 09:36:46;;;;;;;10.83;7.77;;;;;;;;;;5053479;28;20044;-57
2021/11/23 09:39:13;;;;;;;7.93;7.13;;;;;;;;;;5053013;28;20112;-57
2021/11/23 09:41:39;;;;;;;7.37;6.63;;;;;;;;;;5053529;28;20025;-58
2021/11/23 09:44:06;;;;;;;8.70;7.80;;;;;;;;;;5053443;28;20375;-58
2021/11/23 09:46:36;;;;;;;8.63;6.83;;;;;;;;;;5053344;28;20029;-58
2021/11/23 09:49:03;;;;;;;10.77;8.75;;;;;;;;;;5052677;28;20553;-58
2021/11/23 09:51:29;;;;;;;7.63;6.93;;;;;;;;;;5053061;28;20033;-58
2021/11/23 09:53:56;;;;;;;11.00;8.40;;;;;;;;;;5053413;28;20017;-58
2021/11/23 09:56:22;;;;;;;11.53;9.20;;;;;;;;;;5053452;28;20051;-57
2021/11/23 09:58:54;;;;;;;12.77;8.90;;;;;;;;;;5052273;28;20049;-57
2021/11/23 10:01:22;;;;;;;8.87;6.77;;;;;;;;;;5052768;28;20021;-58
2021/11/23 10:03:48;;;;;;;7.73;6.93;;;;;;;;;;5041610;28;20029;-58
2021/11/23 10:06:22;;;;;;;9.00;6.20;;;;;;;;;;5033057;28;20412;-58
2021/11/23 10:08:50;;;;;;;9.47;7.80;;;;;;;;;;5032402;28;20460;-58
2021/11/23 10:11:28;;;;;;;9.10;7.27;;;;;;;;;;5032959;28;20026;-59
2021/11/23 10:13:56;;;;;;;9.47;8.43;;;;;;;;;;5032813;28;20021;-58
2021/11/23 10:16:22;;;;;;;7.13;6.00;;;;;;;;;;5032430;28;20418;-58
2021/11/23 10:18:50;;;;;;;8.37;7.53;;;;;;;;;;5032014;28;20116;-56
2021/11/23 10:21:16;;;;;;;9.73;8.00;;;;;;;;;;5032863;28;20495;-59
2021/11/23 10:23:47;;;;;;;7.40;6.67;;;;;;;;;;5032848;28;20025;-57
2021/11/23 10:26:15;;;;;;;8.83;7.30;;;;;;;;;;5032664;28;20025;-57
2021/11/23 10:28:52;;;;;;;6.93;6.23;;;;;;;;;;5031957;28;20387;-58
2021/11/23 10:31:18;;;;;;;8.50;6.53;;;;;;;;;;5031051;28;20083;-57
2021/11/23 10:33:45;;;;;;;8.90;6.80;;;;;;;;;;5032892;28;20494;-58
2021/11/23 10:36:15;;;;;;;8.33;6.37;;;;;;;;;;5032655;28;20103;-58
2021/11/23 10:38:41;;;;;;;7.65;6.57;;;;;;;;;;5031724;28;20120;-59
2021/11/23 10:41:09;;;;;;;8.10;7.17;;;;;;;;;;5032558;28;20153;-57
2021/11/23 10:43:38;;;;;;;6.00;5.10;;;;;;;;;;5031403;28;20037;-59
2021/11/23 10:46:04;;;;;;;7.27;6.40;;;;;;;;;;5032203;28;20034;-58
2021/11/23 10:48:30;;;;;;;6.80;6.10;;;;;;;;;;5030419;28;20080;-58
2021/11/23 10:51:02;;;;;;;7.27;5.47;;;;;;;;;;5032443;28;20104;-58
2021/11/23 10:53:29;;;;;;;6.70;5.87;;;;;;;;;;5032323;28;20029;-58
2021/11/23 10:55:55;;;;;;;9.83;6.50;;;;;;;;;;5032190;28;20049;-59
2021/11/23 10:58:21;;;;;;;5.83;5.23;;;;;;;;;;5031702;28;20034;-58
2021/11/23 11:00:48;;;;;;;6.73;5.57;;;;;;;;;;5032206;28;20025;-57
2021/11/23 11:03:19;;;;;;;8.37;5.40;;;;;;;;;;5038520;28;20013;-58
2021/11/23 11:05:45;;;;;;;6.60;5.63;;;;;;;;;;5051931;28;20029;-57
2021/11/23 11:08:12;;;;;;;7.53;6.23;;;;;;;;;;5051430;28;20067;-56
2021/11/23 11:10:39;;;;;;;17.05;6.43;;;;;;;;;;5051935;28;20458;-57
2021/11/23 11:13:07;;;;;;;8.67;5.90;;;;;;;;;;5052194;28;20033;-57
2021/11/23 11:15:37;;;;;;;7.17;5.60;;;;;;;;;;5052096;28;20028;-57
2021/11/23 11:18:08;;;;;;;8.25;6.40;;;;;;;;;;5051408;28;20028;-58
2021/11/23 11:20:34;;;;;;;;;;;;;;;;;;5052406;28;20036;-57
2021/11/23 11:23:05;;;;;;;6.20;5.30;;;;;;;;;;5053307;28;20278;-56
2021/11/23 11:25:52;;;;;;;8.10;6.77;;;;;;;;;;5056165;28;20021;-57
2021/11/23 11:28:35;;;;;;;8.93;6.18;;;;;;;;;;5054083;28;20021;-55
2021/11/23 11:31:07;;;;;;;6.18;5.45;;;;;;;;;;5055549;28;20100;-58
2021/11/23 11:33:33;;;;;;;6.68;5.05;;;;;;;;;;5055742;28;20025;-56
2021/11/23 11:36:00;;;;;;;7.28;5.53;;;;;;;;;;5055215;28;20037;-57
2021/11/23 11:38:26;;;;;;;7.50;6.10;;;;;;;;;;5053384;28;20411;-58
2021/11/23 11:40:53;;;;;;;7.43;5.50;;;;;;;;;;5055782;28;20032;-56
2021/11/23 11:43:19;;;;;;;7.45;5.72;;;;;;;;;;5054772;28;20018;-57
2021/11/23 11:45:48;;;;;;;5.95;3.55;;;;;;;;;;5053422;28;20501;-56
2021/11/23 11:48:29;;;;;;;8.15;5.75;;;;;;;;;;5053008;28;20025;-57
2021/11/23 11:50:57;;;;;;;7.43;4.35;;;;;;;;;;5053693;28;20108;-58
2021/11/23 11:53:23;;;;;;;5.20;3.83;;;;;;;;;;5053696;28;20108;-57
2021/11/23 11:55:50;;;;;;;4.93;4.38;;;;;;;;;;5053604;28;20428;-58
2021/11/23 11:58:36;;;;;;;5.90;4.93;;;;;;;;;;5052847;28;20025;-57
2021/11/23 12:01:18;;;;;;;4.57;3.50;;;;;;;;;;5055472;28;20129;-58
2021/11/23 12:03:44;;;;;;;4.85;3.40;;;;;;;;;;5044814;28;20472;-58
2021/11/23 12:06:12;;;;;;;4.38;3.92;;;;;;;;;;5035189;28;20024;-56
2021/11/23 12:08:40;;;;;;;6.05;3.83;;;;;;;;;;5034712;28;20064;-58
2021/11/23 12:11:08;;;;;;;5.25;3.58;;;;;;;;;;5035107;28;20117;-58
2021/11/23 12:13:42;;;;;;;5.35;3.85;;;;;;;;;;5035396;28;20430;-58
2021/11/23 12:16:08;;;;;;;7.20;4.38;;;;;;;;;;5034915;28;20475;-57
2021/11/23 12:18:38;;;;;;;5.07;4.35;;;;;;;;;;5034530;28;20104;-57
2021/11/23 12:21:04;;;;;;;5.32;3.85;;;;;;;;;;5035024;28;20033;-57
2021/11/23 12:23:32;;;;;;;4.75;4.00;;;;;;;;;;5034744;28;20480;-58
2021/11/23 12:26:14;;;;;;;4.60;3.90;;;;;;;;;;5034847;28;20383;-57
2021/11/23 12:28:50;;;;;;;4.50;3.42;;;;;;;;;;5034491;28;20436;-58
2021/11/23 12:31:16;;;;;;;5.00;3.75;;;;;;;;;;5034756;28;20022;-58
2021/11/23 12:33:43;;;;;;;4.85;3.70;;;;;;;;;;5034266;28;20033;-58
2021/11/23 12:36:18;;;;;;;3.80;3.40;;;;;;;;;;5031752;28;20033;-59
2021/11/23 12:38:45;;;;;;;4.70;3.38;;;;;;;;;;5034047;28;20379;-57
2021/11/23 12:41:13;;;;;;;5.13;3.47;;;;;;;;;;5034831;28;20033;-58
2021/11/23 12:43:39;;;;;;;3.97;3.15;;;;;;;;;;5034759;28;20109;-57
2021/11/23 12:46:09;;;;;;;7.22;3.63;;;;;;;;;;5034572;28;20052;-58
2021/11/23 12:48:36;;;;;;;3.35;2.78;;;;;;;;;;5033710;28;20029;-58
2021/11/23 12:51:35;;;;;;;4.50;3.60;;;;;;;;;;5034550;28;20388;-57
2021/11/23 12:54:05;;;;;;;4.50;2.83;;;;;;;;;;5022243;28;20080;-58
2021/11/23 12:56:45;;;;;;;2.35;1.67;;;;;;;;;;5034280;28;20027;-57
2021/11/23 12:59:29;;;;;;;4.00;2.08;;;;;;;;;;5033532;28;20479;-58
2021/11/23 13:01:55;;;;;;;3.33;2.45;;;;;;;;;;5034475;28;20040;-58
2021/11/23 13:04:35;;;;;;;5.05;3.30;;;;;;;;;;5049777;28;20025;-58
2021/11/23 13:07:08;;;;;;;3.75;2.67;;;;;;;;;;5053993;28;20390;-58
2021/11/23 13:10:11;;;;;;;2.97;2.30;;;;;;;;;;5053365;28;20044;-57
2021/11/23 13:12:38;;;;;;;4.50;3.33;;;;;;;;;;5031629;28;20029;-58
2021/11/23 13:15:04;;;;;;;4.53;2.92;;;;;;;;;;5050188;28;20037;-58
2021/11/23 13:17:45;;;;;;;4.63;3.30;;;;;;;;;;5053744;28;20021;-58
2021/11/23 13:20:17;;;;;;;5.43;3.33;;;;;;;;;;5053927;28;20024;-58
2021/11/23 13:22:45;;;;;;;6.43;3.83;;;;;;;;;;5053605;28;20033;-58
2021/11/23 13:25:11;;;;;;;5.78;4.22;;;;;;;;;;5053915;28;20124;-58
2021/11/23 13:27:38;;;;;;;5.28;4.22;;;;;;;;;;5053717;28;20101;-57
2021/11/23 13:30:22;;;;;;;4.78;3.88;;;;;;;;;;5053241;28;20094;-58
2021/11/23 13:32:48;;;;;;;4.25;2.67;;;;;;;;;;5053829;28;20025;-58
2021/11/23 13:35:15;;;;;;;4.70;3.88;;;;;;;;;;5053732;28;20025;-59
2021/11/23 13:37:42;;;;;;;3.95;2.72;;;;;;;;;;5051284;28;20379;-58
2021/11/23 13:40:24;;;;;;;4.15;3.00;;;;;;;;;;5052956;28;20040;-58
2021/11/23 13:42:50;;;;;;;7.88;2.92;;;;;;;;;;5053640;28;20029;-58
2021/11/23 13:45:20;;;;;;;3.97;3.05;;;;;;;;;;5053290;28;20032;-57
2021/11/23 13:47:47;;;;;;;6.53;4.00;;;;;;;;;;5052940;28;20025;-59
2021/11/23 13:50:14;;;;;;;4.90;3.20;;;;;;;;;;5053505;28;20446;-58
2021/11/23 13:52:41;;;;;;;4.85;3.28;;;;;;;;;;5052992;28;20463;-57
2021/11/23 13:55:09;;;;;;;6.20;3.92;;;;;;;;;;5052998;28;20021;-58
2021/11/23 13:57:37;;;;;;;4.00;3.08;;;;;;;;;;5053272;28;20039;-58
2021/11/23 14:00:03;;;;;;;4.22;2.75;;;;;;;;;;5052545;28;20493;-58
2021/11/23 14:02:44;;;;;;;4.18;3.20;;;;;;;;;;5052931;28;20154;-58
2021/11/23 14:05:10;;;;;;;;;;;;;;;;;;5033586;28;20418;-59
2021/11/23 14:07:52;;;;;;;8.88;3.20;;;;;;;;;;5032527;28;19905;-58
2021/11/23 14:10:26;;;;;;;3.22;2.72;;;;;;;;;;5033248;28;20025;-58
2021/11/23 14:12:52;;;;;;;6.85;4.05;;;;;;;;;;5033078;28;20021;-58
2021/11/23 14:15:20;;;;;;;5.68;3.63;;;;;;;;;;5032983;28;20034;-56
2021/11/23 14:18:08;;;;;;;5.78;3.67;;;;;;;;;;5032111;28;20029;-58
2021/11/23 14:20:47;;;;;;;4.47;3.30;;;;;;;;;;5032822;28;20471;-58
2021/11/23 14:23:15;;;;;;;4.25;2.95;;;;;;;;;;5032965;28;20029;-58
2021/11/23 14:25:43;;;;;;;5.85;3.75;;;;;;;;;;5033093;28;20025;-58
2021/11/23 14:28:10;;;;;;;5.03;2.92;;;;;;;;;;5032026;28;20386;-58
2021/11/23 14:30:41;;;;;;;6.20;3.05;;;;;;;;;;5032397;28;20026;-58
2021/11/23 14:33:07;;;;;;;5.60;3.83;;;;;;;;;;5032675;28;20029;-57
2021/11/23 14:35:33;;;;;;;3.53;2.92;;;;;;;;;;5032531;28;20018;-58
2021/11/23 14:38:00;;;;;;;3.38;2.60;;;;;;;;;;5029772;28;20026;-58
2021/11/23 14:40:26;;;;;;;3.97;3.28;;;;;;;;;;5032451;28;20468;-58
2021/11/23 14:42:52;;;;;;;5.82;3.92;;;;;;;;;;5032523;28;20032;-57
2021/11/23 14:45:19;;;;;;;5.32;3.53;;;;;;;;;;5032289;28;20472;-59